Local and Regional Airport Weather



KPVE - Beech River Regional Airport
Distance from station: NW 4mi, 6km
Updated: Wed, Apr-08-2020 12:55pm CDT
Few Clouds
Few Clouds
 Wind from varies
Wind: varies 3 mph , 6 km/h
Temperature: 81°F , 27°C
Heat Index: 84°F , 29°C
Dew Point: 68°F , 20°C
Humidity: 66%
Barometer: 29.79 inHg , 1008.8 hPa
Clouds: Few Clouds
Visibility: 10 miles , 16 km
Cloud details: Few Clouds 3300 ft
2020/04/08 17:55 KPVE 081755Z AUTO VRB03KT 10SM FEW033 27/20 A2979 RMK A01
KSNH - Savannah Hardin Co. Airport
Distance from station: S 34mi, 54km
Updated: Wed, Apr-08-2020 12:55pm CDT
Overcast
Overcast
 Wind from S
Wind: S 7 mph , 11 km/h
Temperature: 79°F , 26°C
Dew Point: 70°F , 21°C
Humidity: 74%
Barometer: 29.81 inHg , 1009.5 hPa
Clouds: Overcast
Visibility: 10 miles , 16 km
Cloud details: Mostly cloudy 2400 ft
Mostly cloudy 3100 ft
Overcast 3600 ft
2020/04/08 17:55 KSNH 081755Z AUTO 19006KT 10SM BKN024 BKN031 OVC036 26/21 A2981 RMK A01
 
KMKL - McKellar-Sipes Regional Airport
Distance from station: W 44mi, 72km
Updated: Wed, Apr-08-2020 12:53pm CDT
Mostly cloudy
Mostly cloudy
 Wind from W
Wind: W 6 mph , 9 km/h
Temperature: 81°F , 27°C
Heat Index: 85°F , 29°C
Dew Point: 70°F , 21°C
Humidity: 70%
Barometer: 29.81 inHg , 1009.5 hPa
Clouds: Mostly cloudy
Visibility: 10 miles , 16 km
Cloud details: Partly cloudy 3200 ft
Mostly cloudy 5000 ft
2020/04/08 17:53 KMKL 081753Z 27005KT 10SM SCT032 BKN050 27/21 A2981 RMK AO2 SLP088 T02720206 10278 20206 58014
KMSL - NW Alabama Regional Airport
Distance from station: SE 78mi, 126km
Updated: Wed, Apr-08-2020 12:53pm CDT
Overcast
Overcast
 Wind from SW
Wind: SW 7 mph , 11 km/h
Temperature: 79°F , 26°C
Dew Point: 70°F , 21°C
Humidity: 74%
Barometer: 29.84 inHg , 1010.5 hPa
Clouds: Overcast
Visibility: 10 miles , 16 km
Cloud details: Partly cloudy 1700 ft
Partly cloudy 2200 ft
Overcast 2900 ft
2020/04/08 17:53 KMSL 081753Z AUTO 23006KT 10SM SCT017 SCT022 OVC029 26/21 A2984 RMK AO2 SLP098 T02560206 10267 20211 58015
 
KBNA - Nashville International Airport
Distance from station: NE 97mi, 157km
Updated: Wed, Apr-08-2020 12:53pm CDT
Mostly cloudy
Mostly cloudy
 Wind from WSW
Wind: WSW 3 mph , 6 km/h
Temperature: 79°F , 26°C
Dew Point: 64°F , 18°C
Humidity: 61%
Barometer: 29.81 inHg , 1009.5 hPa
Clouds: Mostly cloudy
Visibility: 10 miles , 16 km
Cloud details: Partly cloudy 2300 ft
Mostly cloudy 2900 ft
Mostly cloudy 25000 ft
2020/04/08 17:53 KBNA 081753Z 24003KT 10SM SCT023 BKN029 BKN250 26/18 A2981 RMK AO2 SLP088 T02560183 10267 20200 58014
KMEM - Memphis International Airport
Distance from station: W 108mi, 173km
Updated: Wed, Apr-08-2020 12:54pm CDT
Mostly cloudy
Mostly cloudy
 Wind from SW
Wind: SW 12 mph , 19 km/h
Temperature: 79°F , 26°C
Dew Point: 72°F , 22°C
Humidity: 79%
Barometer: 29.82 inHg , 1009.8 hPa
Clouds: Mostly cloudy
Visibility: 10 miles , 16 km
Cloud details: Mostly cloudy 2000 ft
2020/04/08 17:54 KMEM 081754Z 23010KT 10SM BKN020 26/22 A2982 RMK AO2 SLP094 T02610217 10267 20217 58007
 
KTYS - Knoxville McGhee Tyson Airport
Distance from station: E 234mi, 377km
Updated: Wed, Apr-08-2020 1:04pm CDT
Partly cloudy
Partly cloudy
 Wind from SW
Wind: SW 8 mph , 13 km/h
Temperature: 75°F , 24°C
Dew Point: 63°F , 17°C
Humidity: 65%
Barometer: 29.82 inHg , 1009.8 hPa
Clouds: Partly cloudy
Visibility: 10 miles , 16 km
Cloud details: Partly cloudy 2900 ft
Partly cloudy 25000 ft
2020/04/08 18:04 KTYS 081804Z 22007KT 190V250 10SM SCT029 SCT250 24/17 A2982 RMK AO2 T02390167
KSTL - St. Louis International Airport
Distance from station: NW 247mi, 398km
Updated: Wed, Apr-08-2020 12:51pm CDT
Few Clouds
Few Clouds
 Wind from ESE
Wind: ESE 7 mph , 11 km/h
Temperature: 84°F , 29°C
Dew Point: 50°F , 10°C
Humidity: 31%
Barometer: 29.72 inHg , 1006.4 hPa
Clouds: Few Clouds
Visibility: 10 miles , 16 km
Cloud details: Few Clouds 6000 ft
Few Clouds 25000 ft
2020/04/08 17:51 KSTL 081751Z 11006KT 10SM FEW060 FEW250 29/10 A2972 RMK AO2 SLP054 T02890100 10289 20178 58017 $

Refresh Page for latest data.